Bookmark and Share
Track history (hours):
 

Ocean Outback

Last reported at 2014-Mar-22 20:25 UTC. Time now 2014-Apr-17 03:59 UTC.
Position S 12°29' E 130°53'.
Warning: this ship's position is 25 days out of date.

Length 136 m; draft 6.7 m.

Type: Ship. MMSI: 563745000.

NotesDate/timePositionNaut miles runAvg speedWind from/ knotsBaromVisibWave heightAir tempDewpointWater temp
2014-Mar-22 20:25S 12°29' E 130°53'0 0.0
2014-Mar-22 17:31S 12°29' E 130°53'0 0.0
2014-Mar-22 14:31S 12°29' E 130°53'0 0.0
2014-Mar-22 13:31S 12°29' E 130°53'0 0.0
2014-Mar-22 12:31S 12°29' E 130°53'0 0.0
2014-Mar-22 11:31S 12°29' E 130°53'0 0.0
2014-Mar-22 10:31S 12°29' E 130°53'0 0.0
2014-Mar-22 09:28S 12°29' E 130°53'0 0.0
2014-Mar-22 08:31S 12°29' E 130°53'1 0.5
2014-Mar-22 07:33S 12°29' E 130°52'8 8.3
2014-Mar-22 06:34S 12°24' E 130°46'1 0.6
2014-Mar-22 05:33S 12°24' E 130°46'0 0.1
2014-Mar-22 04:33S 12°24' E 130°46'0 0.0
2014-Mar-22 03:33S 12°24' E 130°46'0 0.0
2014-Mar-22 02:33S 12°24' E 130°46'0 0.1
2014-Mar-22 01:33S 12°24' E 130°46'0 0.0
2014-Mar-22 00:33S 12°24' E 130°46'0 0.0
2014-Mar-21 23:33S 12°24' E 130°46'0 0.0
2014-Mar-21 22:33S 12°24' E 130°46'0 0.0
2014-Mar-21 21:33S 12°24' E 130°46'0 0.0
2014-Mar-21 20:33S 12°24' E 130°46'0 0.0
2014-Mar-21 19:33S 12°24' E 130°46'0 0.1
2014-Mar-21 18:33S 12°24' E 130°46'0 0.0
2014-Mar-21 17:33S 12°24' E 130°46'0 0.1
2014-Mar-21 16:33S 12°24' E 130°46'0 0.0
2014-Mar-21 15:33S 12°24' E 130°46'0 0.0
2014-Mar-21 14:33S 12°24' E 130°46'0 0.0
2014-Mar-21 13:33S 12°24' E 130°46'0 0.1
2014-Mar-21 12:33S 12°24' E 130°46'0 0.1
2014-Mar-21 11:33S 12°24' E 130°46'4 3.7
2014-Mar-21 10:34S 12°22' E 130°44'1717.3
2014-Mar-21 09:33S 12°14' E 130°28'1414.3
2014-Mar-21 08:33S 12°05' E 130°16'9 9.5
2014-Mar-21 07:34S 12°01' E 130°08'  

Dump ship's entire track history

sailing weather and tide predictions

Ocean Outback — 9V8072 — position and weather